Time;durP1;ratioP1;P1;durP2;ratioP2;P2;SDS_P1;SDS_P2;PMS_P1;PMS_P2;Temp;Humidity;BMP_temperature;BMP_pressure;BME280_temperature;BME280_humidity;BME280_pressure;Samples;Min_cycle;Max_cycle;Signal;HPM_P1;HPM_P2
2023/03/12 00:00:19;;;;;;;11.40;6.83;;;;;;;;;;5074299;28;20185;-71
2023/03/12 00:02:45;;;;;;;13.53;6.60;;;;;;;;;;5074535;28;20181;-68
2023/03/12 00:05:11;;;;;;;14.33;7.30;;;;;;;;;;5074679;28;20201;-68
2023/03/12 00:07:38;;;;;;;13.37;7.57;;;;;;;;;;5074695;28;20188;-70
2023/03/12 00:10:04;;;;;;;11.23;6.93;;;;;;;;;;5074882;28;20205;-67
2023/03/12 00:12:30;;;;;;;15.67;7.33;;;;;;;;;;5074475;28;20201;-68
2023/03/12 00:14:56;;;;;;;14.23;7.33;;;;;;;;;;5074510;28;20224;-68
2023/03/12 00:17:22;;;;;;;13.90;7.30;;;;;;;;;;5072939;28;20201;-68
2023/03/12 00:19:54;;;;;;;12.93;7.17;;;;;;;;;;5074495;28;20181;-69
2023/03/12 00:22:24;;;;;;;16.17;6.90;;;;;;;;;;5074677;28;20231;-68
2023/03/12 00:24:51;;;;;;;10.80;5.83;;;;;;;;;;5074468;28;20701;-68
2023/03/12 00:27:17;;;;;;;11.63;6.47;;;;;;;;;;5074232;28;20291;-67
2023/03/12 00:29:43;;;;;;;14.53;7.13;;;;;;;;;;5074305;28;20658;-68
2023/03/12 00:32:09;;;;;;;31.83;12.30;;;;;;;;;;5073184;28;20178;-68
2023/03/12 00:34:35;;;;;;;30.43;11.60;;;;;;;;;;5074301;28;20574;-68
2023/03/12 00:37:01;;;;;;;27.13;10.33;;;;;;;;;;5072755;28;20262;-69
2023/03/12 00:39:27;;;;;;;22.10;9.13;;;;;;;;;;5074419;28;20185;-68
2023/03/12 00:41:53;;;;;;;21.57;8.33;;;;;;;;;;5074266;28;20178;-68
2023/03/12 00:44:19;;;;;;;11.63;6.27;;;;;;;;;;5073175;28;20182;-68
2023/03/12 00:46:45;;;;;;;14.03;6.50;;;;;;;;;;5074170;28;20583;-68
2023/03/12 00:49:11;;;;;;;11.80;6.30;;;;;;;;;;5073918;28;20185;-67
2023/03/12 00:51:37;;;;;;;13.63;5.83;;;;;;;;;;5078095;28;20184;-67
2023/03/12 00:54:04;;;;;;;8.73;5.67;;;;;;;;;;5077806;28;20201;-67
2023/03/12 00:56:30;;;;;;;13.37;5.93;;;;;;;;;;5077734;28;20750;-68
2023/03/12 00:58:56;;;;;;;11.27;5.10;;;;;;;;;;5078059;28;20408;-68
2023/03/12 01:01:22;;;;;;;10.03;5.93;;;;;;;;;;5076815;28;20175;-69
2023/03/12 01:03:50;;;;;;;8.90;5.90;;;;;;;;;;5078350;28;20177;-68
2023/03/12 01:06:16;;;;;;;6.67;4.73;;;;;;;;;;5077578;28;20276;-71
2023/03/12 01:08:42;;;;;;;10.47;5.00;;;;;;;;;;5078160;28;21015;-68
2023/03/12 01:11:12;;;;;;;8.07;4.90;;;;;;;;;;5076293;28;20201;-68
2023/03/12 01:13:38;;;;;;;7.03;4.97;;;;;;;;;;5077796;28;20202;-69
2023/03/12 01:16:04;;;;;;;8.10;4.43;;;;;;;;;;5077567;28;20331;-68
2023/03/12 01:18:30;;;;;;;13.70;5.10;;;;;;;;;;5078325;28;20178;-67
2023/03/12 01:20:56;;;;;;;9.97;5.10;;;;;;;;;;5077737;28;20548;-68
2023/03/12 01:23:22;;;;;;;10.77;5.07;;;;;;;;;;5077988;28;20181;-67
2023/03/12 01:25:50;;;;;;;7.73;4.60;;;;;;;;;;5079189;28;20447;-68
2023/03/12 01:28:16;;;;;;;10.13;4.53;;;;;;;;;;5078111;28;20186;-68
2023/03/12 01:30:42;;;;;;;11.37;4.03;;;;;;;;;;5076960;28;20532;-68
2023/03/12 01:33:08;;;;;;;8.00;4.30;;;;;;;;;;5076946;28;20290;-69
2023/03/12 01:35:38;;;;;;;7.13;3.90;;;;;;;;;;5077297;28;20189;-69
2023/03/12 01:38:04;;;;;;;7.57;4.10;;;;;;;;;;5077351;28;20206;-67
2023/03/12 01:40:32;;;;;;;10.50;4.20;;;;;;;;;;5077878;28;20196;-70
2023/03/12 01:42:58;;;;;;;7.27;3.57;;;;;;;;;;5077310;28;20284;-69
2023/03/12 01:45:43;;;;;;;8.40;3.90;;;;;;;;;;5077277;28;20245;-67
2023/03/12 01:48:09;;;;;;;7.30;3.93;;;;;;;;;;5077920;28;20186;-68
2023/03/12 01:50:35;;;;;;;9.37;3.67;;;;;;;;;;5077271;28;20504;-67
2023/03/12 01:53:01;;;;;;;4.63;3.57;;;;;;;;;;5076946;28;20242;-68
2023/03/12 01:55:27;;;;;;;11.33;5.00;;;;;;;;;;5077086;28;20213;-67
2023/03/12 01:57:56;;;;;;;12.60;5.23;;;;;;;;;;5075882;28;20709;-68
2023/03/12 02:00:25;;;;;;;9.00;4.80;;;;;;;;;;5077134;28;20178;-68
2023/03/12 02:02:52;;;;;;;8.67;4.20;;;;;;;;;;5077526;28;20436;-68
2023/03/12 02:05:39;;;;;;;8.30;3.90;;;;;;;;;;5077094;28;20466;-68
2023/03/12 02:08:05;;;;;;;8.17;3.90;;;;;;;;;;5077154;28;20169;-68
2023/03/12 02:10:31;;;;;;;11.57;3.70;;;;;;;;;;5077557;28;20699;-68
2023/03/12 02:12:57;;;;;;;6.17;4.00;;;;;;;;;;5077630;28;20236;-68
2023/03/12 02:15:23;;;;;;;9.23;3.70;;;;;;;;;;5076139;28;20197;-68
2023/03/12 02:17:49;;;;;;;8.83;3.60;;;;;;;;;;5076784;28;20178;-68
2023/03/12 02:20:34;;;;;;;7.30;4.27;;;;;;;;;;5076823;28;20564;-67
2023/03/12 02:23:04;;;;;;;7.03;3.93;;;;;;;;;;5076846;28;20197;-68
2023/03/12 02:25:35;;;;;;;7.30;3.80;;;;;;;;;;5077183;28;20443;-69
2023/03/12 02:28:03;;;;;;;8.13;3.77;;;;;;;;;;5075194;28;20424;-67
2023/03/12 02:30:30;;;;;;;10.67;4.20;;;;;;;;;;5076557;28;20178;-68
2023/03/12 02:32:58;;;;;;;5.77;3.57;;;;;;;;;;5076595;28;20450;-68
2023/03/12 02:35:23;;;;;;;9.77;3.93;;;;;;;;;;5075616;28;20536;-69
2023/03/12 02:37:50;;;;;;;12.47;4.20;;;;;;;;;;5076014;28;20209;-68
2023/03/12 02:40:35;;;;;;;7.53;3.37;;;;;;;;;;5076033;28;20180;-68
2023/03/12 02:43:02;;;;;;;7.57;3.90;;;;;;;;;;5076164;28;20788;-67
2023/03/12 02:45:28;;;;;;;7.07;3.70;;;;;;;;;;5075555;28;20213;-68
2023/03/12 02:47:54;;;;;;;13.63;4.77;;;;;;;;;;5075850;28;20643;-68
2023/03/12 02:50:20;;;;;;;8.33;4.10;;;;;;;;;;5074467;28;20181;-68
2023/03/12 02:52:46;;;;;;;8.67;4.33;;;;;;;;;;5075760;28;20509;-69
2023/03/12 02:55:12;;;;;;;10.47;5.33;;;;;;;;;;5074435;28;20573;-68
2023/03/12 02:57:38;;;;;;;13.33;5.53;;;;;;;;;;5074395;28;20724;-68
2023/03/12 03:00:11;;;;;;;8.87;5.80;;;;;;;;;;5076031;28;20195;-68
2023/03/12 03:02:38;;;;;;;10.50;5.90;;;;;;;;;;5074521;28;20170;-67
2023/03/12 03:05:04;;;;;;;13.57;7.47;;;;;;;;;;5076074;28;20205;-68
2023/03/12 03:07:30;;;;;;;13.37;6.20;;;;;;;;;;5075471;28;20552;-68
2023/03/12 03:09:56;;;;;;;13.80;5.20;;;;;;;;;;5099989;22;20182;-65
2023/03/12 03:12:22;;;;;;;7.87;4.80;;;;;;;;;;5073031;28;20199;-67
2023/03/12 03:14:48;;;;;;;9.53;4.60;;;;;;;;;;5074894;28;20174;-66
2023/03/12 03:17:14;;;;;;;7.80;3.97;;;;;;;;;;5075228;28;20200;-66
2023/03/12 03:19:40;;;;;;;8.30;4.30;;;;;;;;;;5066943;28;20178;-67
2023/03/12 03:22:06;;;;;;;9.93;4.80;;;;;;;;;;5066312;28;20215;-68
2023/03/12 03:24:32;;;;;;;12.47;4.67;;;;;;;;;;5064505;28;20178;-67
2023/03/12 03:26:58;;;;;;;14.80;5.30;;;;;;;;;;5062424;28;20628;-67
2023/03/12 03:29:24;;;;;;;8.83;4.90;;;;;;;;;;5062264;28;20181;-68
2023/03/12 03:31:50;;;;;;;12.90;6.27;;;;;;;;;;5062858;28;20208;-67
2023/03/12 03:34:16;;;;;;;12.10;6.53;;;;;;;;;;5079827;28;20201;-68
2023/03/12 03:36:42;;;;;;;15.20;6.07;;;;;;;;;;5058088;28;20232;-68
2023/03/12 03:39:08;;;;;;;14.50;5.37;;;;;;;;;;5074291;28;20178;-66
2023/03/12 03:41:34;;;;;;;12.53;5.30;;;;;;;;;;5074244;28;20198;-66
2023/03/12 03:44:00;;;;;;;11.33;4.87;;;;;;;;;;5074636;28;20205;-68
2023/03/12 03:46:26;;;;;;;9.40;4.23;;;;;;;;;;5056334;28;20185;-66
2023/03/12 03:48:52;;;;;;;7.63;4.33;;;;;;;;;;5074676;28;20180;-66
2023/03/12 03:51:18;;;;;;;7.70;3.53;;;;;;;;;;5073900;28;20574;-66
2023/03/12 03:53:44;;;;;;;8.13;3.67;;;;;;;;;;5074194;28;20194;-66
2023/03/12 03:56:12;;;;;;;6.93;3.67;;;;;;;;;;5074378;28;20176;-66
2023/03/12 03:58:38;;;;;;;7.33;3.60;;;;;;;;;;5056486;28;20613;-66
2023/03/12 04:01:05;;;;;;;5.50;3.30;;;;;;;;;;5074091;28;20219;-67
2023/03/12 04:03:31;;;;;;;5.70;3.37;;;;;;;;;;5074530;28;20174;-66
2023/03/12 04:05:58;;;;;;;5.43;3.50;;;;;;;;;;5073890;28;20210;-67
2023/03/12 04:08:25;;;;;;;10.37;3.70;;;;;;;;;;5056216;28;20177;-66
2023/03/12 04:10:51;;;;;;;8.37;4.30;;;;;;;;;;5056049;28;20645;-67
2023/03/12 04:13:17;;;;;;;8.03;3.53;;;;;;;;;;5055903;28;20208;-66
2023/03/12 04:15:47;;;;;;;6.43;3.20;;;;;;;;;;5055996;28;20178;-66
2023/03/12 04:18:13;;;;;;;11.10;4.07;;;;;;;;;;5055780;28;20674;-66
2023/03/12 04:20:39;;;;;;;8.33;3.83;;;;;;;;;;5073842;28;20233;-67
2023/03/12 04:23:05;;;;;;;5.23;3.23;;;;;;;;;;5056007;28;20276;-66
2023/03/12 04:25:31;;;;;;;9.30;3.80;;;;;;;;;;5076999;28;20262;-68
2023/03/12 04:27:57;;;;;;;7.47;3.17;;;;;;;;;;5078396;28;20183;-67
2023/03/12 04:30:23;;;;;;;7.20;3.57;;;;;;;;;;5077923;28;20208;-66
2023/03/12 04:32:49;;;;;;;7.20;3.10;;;;;;;;;;5077775;28;20250;-67
2023/03/12 04:35:15;;;;;;;7.90;3.03;;;;;;;;;;5078177;28;20651;-67
2023/03/12 04:37:41;;;;;;;7.90;3.50;;;;;;;;;;5077830;28;20170;-68
2023/03/12 04:40:08;;;;;;;3.67;2.90;;;;;;;;;;5077716;28;20654;-66
2023/03/12 04:42:35;;;;;;;8.57;3.57;;;;;;;;;;5077695;28;20265;-67
2023/03/12 04:45:01;;;;;;;9.23;3.10;;;;;;;;;;5077623;28;20209;-66
2023/03/12 04:47:27;;;;;;;6.07;3.30;;;;;;;;;;5077501;28;20181;-67
2023/03/12 04:49:53;;;;;;;5.37;3.00;;;;;;;;;;5077297;28;20182;-69
2023/03/12 04:52:19;;;;;;;7.07;3.40;;;;;;;;;;5059372;28;20186;-67
2023/03/12 04:54:45;;;;;;;10.67;3.80;;;;;;;;;;5077481;28;20311;-66
2023/03/12 04:57:11;;;;;;;5.83;3.77;;;;;;;;;;5077253;28;20224;-66
2023/03/12 04:59:37;;;;;;;7.37;3.03;;;;;;;;;;5077385;28;20600;-66
2023/03/12 05:02:03;;;;;;;8.67;3.33;;;;;;;;;;5078126;28;20655;-66
2023/03/12 05:04:29;;;;;;;8.73;3.83;;;;;;;;;;5079356;28;20181;-66
2023/03/12 05:06:55;;;;;;;6.33;3.53;;;;;;;;;;5077213;28;20588;-67
2023/03/12 05:09:21;;;;;;;14.70;4.00;;;;;;;;;;5077170;28;20256;-67
2023/03/12 05:11:47;;;;;;;9.10;4.23;;;;;;;;;;5058646;28;20216;-68
2023/03/12 05:14:13;;;;;;;6.60;3.80;;;;;;;;;;5077076;28;20206;-67
2023/03/12 05:16:39;;;;;;;8.67;4.33;;;;;;;;;;5076768;28;20186;-68
2023/03/12 05:19:05;;;;;;;6.57;3.90;;;;;;;;;;5076978;28;20166;-66
2023/03/12 05:21:30;;;;;;;9.53;4.40;;;;;;;;;;5076841;28;20186;-67
2023/03/12 05:23:56;;;;;;;6.93;3.90;;;;;;;;;;5076592;28;20640;-67
2023/03/12 05:26:24;;;;;;;9.23;4.40;;;;;;;;;;5076930;28;20639;-67
2023/03/12 05:28:50;;;;;;;14.83;5.70;;;;;;;;;;5058639;28;20273;-66
2023/03/12 05:31:17;;;;;;;15.80;5.17;;;;;;;;;;5076816;28;20272;-66
2023/03/12 05:33:43;;;;;;;8.13;4.50;;;;;;;;;;5058452;28;20206;-66
2023/03/12 05:36:09;;;;;;;12.63;5.40;;;;;;;;;;5076245;28;20184;-67
2023/03/12 05:38:35;;;;;;;15.87;5.40;;;;;;;;;;5076409;28;20181;-67
2023/03/12 05:41:02;;;;;;;13.50;4.53;;;;;;;;;;5076282;28;20190;-66
2023/03/12 05:43:28;;;;;;;8.43;4.80;;;;;;;;;;5076375;28;20180;-68
2023/03/12 05:45:58;;;;;;;8.00;4.30;;;;;;;;;;5058657;28;20212;-67
2023/03/12 05:48:24;;;;;;;8.90;4.77;;;;;;;;;;5077018;28;20180;-66
2023/03/12 05:50:49;;;;;;;11.57;5.43;;;;;;;;;;5076336;28;20194;-67
2023/03/12 05:53:15;;;;;;;16.90;4.87;;;;;;;;;;5076156;28;20210;-67
2023/03/12 05:55:41;;;;;;;9.10;4.37;;;;;;;;;;5058475;28;20178;-68
2023/03/12 05:58:07;;;;;;;9.60;3.80;;;;;;;;;;5076607;28;20174;-67
2023/03/12 06:00:37;;;;;;;7.47;3.37;;;;;;;;;;5058173;28;20212;-69
2023/03/12 06:03:06;;;;;;;6.63;3.60;;;;;;;;;;5076036;28;20701;-67
2023/03/12 06:05:33;;;;;;;9.07;3.70;;;;;;;;;;5058293;28;20174;-68
2023/03/12 06:08:00;;;;;;;14.53;4.00;;;;;;;;;;5076039;28;20232;-67
2023/03/12 06:10:26;;;;;;;7.03;3.93;;;;;;;;;;5075951;28;20591;-67
2023/03/12 06:12:52;;;;;;;8.03;3.70;;;;;;;;;;5076133;28;20205;-67
2023/03/12 06:15:18;;;;;;;7.37;3.73;;;;;;;;;;5075768;28;20174;-67
2023/03/12 06:17:44;;;;;;;9.80;3.50;;;;;;;;;;5076079;28;20185;-67
2023/03/12 06:20:10;;;;;;;9.53;4.27;;;;;;;;;;5075797;28;20550;-67
2023/03/12 06:22:36;;;;;;;5.80;3.50;;;;;;;;;;5075833;28;20178;-67
2023/03/12 06:25:02;;;;;;;15.77;4.17;;;;;;;;;;5057871;28;20185;-66
2023/03/12 06:27:28;;;;;;;7.87;3.40;;;;;;;;;;5075639;28;20205;-67
2023/03/12 06:29:54;;;;;;;7.03;3.60;;;;;;;;;;5057529;28;20178;-69
2023/03/12 06:32:20;;;;;;;6.97;3.80;;;;;;;;;;5076105;28;20180;-67
2023/03/12 06:34:46;;;;;;;7.60;4.07;;;;;;;;;;5075835;28;20170;-67
2023/03/12 06:37:12;;;;;;;9.97;4.60;;;;;;;;;;5075693;28;20265;-67
2023/03/12 06:39:38;;;;;;;7.23;4.50;;;;;;;;;;5057614;28;20174;-66
2023/03/12 06:42:05;;;;;;;9.13;4.43;;;;;;;;;;5057851;28;20254;-67
2023/03/12 06:44:31;;;;;;;11.60;5.07;;;;;;;;;;5075620;28;20182;-67
2023/03/12 06:46:57;;;;;;;9.07;5.17;;;;;;;;;;5074712;28;20189;-67
2023/03/12 06:49:23;;;;;;;15.83;7.03;;;;;;;;;;5057147;28;20182;-66
2023/03/12 06:51:49;;;;;;;13.20;7.60;;;;;;;;;;5075121;28;20226;-68
2023/03/12 06:54:15;;;;;;;11.97;7.50;;;;;;;;;;5075172;28;20288;-69
2023/03/12 06:56:41;;;;;;;14.03;6.90;;;;;;;;;;5057186;28;20181;-68
2023/03/12 06:59:07;;;;;;;14.93;7.60;;;;;;;;;;5075213;28;20170;-67
2023/03/12 07:01:33;;;;;;;13.57;7.50;;;;;;;;;;5057106;28;20205;-67
2023/03/12 07:03:59;;;;;;;10.97;6.20;;;;;;;;;;5057181;28;20188;-67
2023/03/12 07:06:25;;;;;;;16.43;6.03;;;;;;;;;;5075895;28;20180;-68
2023/03/12 07:08:51;;;;;;;15.17;7.43;;;;;;;;;;5076179;28;20174;-69
2023/03/12 07:11:17;;;;;;;22.30;8.83;;;;;;;;;;5076422;28;20220;-67
2023/03/12 07:13:43;;;;;;;15.20;7.93;;;;;;;;;;5076411;28;20201;-67
2023/03/12 07:16:09;;;;;;;20.00;8.67;;;;;;;;;;5058085;28;20602;-69
2023/03/12 07:18:35;;;;;;;15.20;7.60;;;;;;;;;;5059608;28;20192;-67
2023/03/12 07:21:01;;;;;;;14.00;8.23;;;;;;;;;;5075999;28;20201;-67
2023/03/12 07:23:27;;;;;;;14.37;7.73;;;;;;;;;;5076559;28;20189;-68
2023/03/12 07:25:53;;;;;;;10.93;6.67;;;;;;;;;;5076142;28;20181;-68
2023/03/12 07:28:19;;;;;;;20.47;6.90;;;;;;;;;;5076192;28;20184;-67
2023/03/12 07:30:51;;;;;;;13.93;6.73;;;;;;;;;;5057565;28;20293;-68
2023/03/12 07:33:19;;;;;;;10.67;6.00;;;;;;;;;;5076124;28;20666;-67
2023/03/12 07:35:45;;;;;;;11.03;6.33;;;;;;;;;;5075631;28;20189;-69
2023/03/12 07:38:12;;;;;;;9.77;6.23;;;;;;;;;;5077956;28;20201;-67
2023/03/12 07:40:39;;;;;;;16.23;7.60;;;;;;;;;;5077010;28;20284;-67
2023/03/12 07:43:11;;;;;;;17.43;8.53;;;;;;;;;;5057870;28;20178;-68
2023/03/12 07:45:38;;;;;;;12.80;7.40;;;;;;;;;;5057492;28;20174;-67
2023/03/12 07:48:04;;;;;;;13.20;7.97;;;;;;;;;;5075690;28;20178;-69
2023/03/12 07:50:30;;;;;;;14.17;6.77;;;;;;;;;;5057084;28;20255;-68
2023/03/12 07:52:56;;;;;;;12.10;6.40;;;;;;;;;;5074776;28;20201;-68
2023/03/12 07:55:22;;;;;;;14.23;7.50;;;;;;;;;;5056564;28;20555;-67
2023/03/12 07:57:48;;;;;;;12.07;7.10;;;;;;;;;;5074054;28;20177;-67
2023/03/12 08:00:14;;;;;;;17.47;8.73;;;;;;;;;;5073913;28;20268;-67
2023/03/12 08:02:40;;;;;;;16.57;8.10;;;;;;;;;;5056226;28;20560;-67
2023/03/12 08:05:06;;;;;;;15.87;8.03;;;;;;;;;;5074197;28;20535;-67
2023/03/12 08:07:33;;;;;;;12.03;6.40;;;;;;;;;;5056489;28;20181;-67
2023/03/12 08:10:00;;;;;;;13.63;6.73;;;;;;;;;;5073790;28;20177;-67
2023/03/12 08:12:26;;;;;;;15.97;8.90;;;;;;;;;;5074116;28;20252;-67
2023/03/12 08:14:52;;;;;;;13.33;6.63;;;;;;;;;;5074151;28;20181;-69
2023/03/12 08:17:19;;;;;;;15.83;9.43;;;;;;;;;;5074432;28;20177;-66
2023/03/12 08:19:45;;;;;;;20.20;11.17;;;;;;;;;;5073734;28;20170;-67
2023/03/12 08:22:11;;;;;;;27.33;14.03;;;;;;;;;;5073085;28;20197;-67
2023/03/12 08:24:37;;;;;;;22.30;12.27;;;;;;;;;;5055236;28;20660;-66
2023/03/12 08:27:03;;;;;;;19.77;9.83;;;;;;;;;;5073556;28;20209;-67
2023/03/12 08:29:28;;;;;;;13.23;7.30;;;;;;;;;;5055171;28;20181;-67
2023/03/12 08:31:55;;;;;;;18.47;9.73;;;;;;;;;;5073136;28;20205;-67
2023/03/12 08:34:21;;;;;;;16.93;9.53;;;;;;;;;;5073329;28;20209;-68
2023/03/12 08:36:47;;;;;;;11.60;8.40;;;;;;;;;;5055183;28;20288;-68
2023/03/12 08:39:13;;;;;;;14.13;8.17;;;;;;;;;;5073380;28;20223;-67
2023/03/12 08:41:39;;;;;;;12.90;8.67;;;;;;;;;;5072963;28;20620;-68
2023/03/12 08:44:05;;;;;;;12.57;7.90;;;;;;;;;;5073522;28;20311;-67
2023/03/12 08:46:31;;;;;;;12.93;6.70;;;;;;;;;;5055427;28;20174;-67
2023/03/12 08:48:57;;;;;;;9.37;5.43;;;;;;;;;;5055385;28;20232;-67
2023/03/12 08:51:23;;;;;;;7.43;5.17;;;;;;;;;;5055207;28;20585;-67
2023/03/12 08:53:49;;;;;;;12.70;5.87;;;;;;;;;;5073485;28;20675;-67
2023/03/12 08:56:15;;;;;;;8.47;5.13;;;;;;;;;;5073227;28;20182;-67
2023/03/12 08:58:41;;;;;;;8.90;5.50;;;;;;;;;;5073067;28;20547;-67
2023/03/12 09:01:08;;;;;;;11.20;5.70;;;;;;;;;;5073386;28;20191;-66
2023/03/12 09:03:34;;;;;;;15.10;6.03;;;;;;;;;;5055438;28;20648;-67
2023/03/12 09:06:12;;;;;;;9.07;6.60;;;;;;;;;;5055308;28;20210;-67
2023/03/12 09:08:38;;;;;;;13.20;6.60;;;;;;;;;;5073578;28;20161;-68
2023/03/12 09:11:04;;;;;;;11.87;6.77;;;;;;;;;;5075020;28;20213;-67
2023/03/12 09:13:30;;;;;;;15.53;8.10;;;;;;;;;;5076814;28;20205;-67
2023/03/12 09:16:00;;;;;;;12.20;8.70;;;;;;;;;;5077970;28;20217;-68
2023/03/12 09:18:26;;;;;;;10.73;7.00;;;;;;;;;;5060506;28;20204;-69
2023/03/12 09:20:52;;;;;;;15.23;8.03;;;;;;;;;;5059604;28;20547;-67
2023/03/12 09:23:17;;;;;;;11.33;8.43;;;;;;;;;;5060031;28;20272;-69
2023/03/12 09:25:47;;;;;;;14.20;9.90;;;;;;;;;;5060396;28;20185;-68
2023/03/12 09:28:13;;;;;;;12.70;7.50;;;;;;;;;;5059023;28;20243;-68
2023/03/12 09:30:40;;;;;;;13.63;7.40;;;;;;;;;;5078591;28;20213;-67
2023/03/12 09:33:06;;;;;;;9.53;8.37;;;;;;;;;;5082642;22;20213;-69
2023/03/12 09:35:32;;;;;;;8.73;7.43;;;;;;;;;;5092929;28;20194;-68
2023/03/12 09:37:58;;;;;;;14.27;8.83;;;;;;;;;;5090830;28;20547;-68
2023/03/12 09:40:25;;;;;;;11.30;9.17;;;;;;;;;;5087204;28;20185;-68
2023/03/12 09:43:13;;;;;;;14.43;9.27;;;;;;;;;;5078426;28;20181;-68
2023/03/12 09:45:43;;;;;;;12.47;8.87;;;;;;;;;;5058103;28;20253;-68
2023/03/12 09:48:19;;;;;;;10.37;8.20;;;;;;;;;;5039624;28;20216;-68
2023/03/12 09:50:47;;;;;;;10.07;9.10;;;;;;;;;;5059320;28;20213;-68
2023/03/12 09:53:22;;;;;;;13.63;9.33;;;;;;;;;;5057672;28;20210;-68
2023/03/12 09:55:49;;;;;;;11.57;9.13;;;;;;;;;;5057467;28;20543;-68
2023/03/12 09:58:29;;;;;;;13.07;10.07;;;;;;;;;;5057411;28;20170;-68
2023/03/12 10:01:01;;;;;;;11.13;10.00;;;;;;;;;;5057407;28;20178;-68
2023/03/12 10:03:27;;;;;;;12.50;9.40;;;;;;;;;;5039303;28;20248;-68
2023/03/12 10:05:53;;;;;;;14.50;11.37;;;;;;;;;;5039357;28;20242;-68
2023/03/12 10:08:32;;;;;;;14.67;12.00;;;;;;;;;;5057664;28;20255;-68
2023/03/12 10:11:07;;;;;;;14.33;11.13;;;;;;;;;;5039538;28;20186;-68
2023/03/12 10:13:42;;;;;;;13.23;11.83;;;;;;;;;;5057658;28;20213;-68
2023/03/12 10:16:15;;;;;;;12.93;11.67;;;;;;;;;;5057381;28;20637;-69
2023/03/12 10:18:44;;;;;;;14.20;12.80;;;;;;;;;;5074337;28;20189;-68
2023/03/12 10:21:12;;;;;;;13.97;12.20;;;;;;;;;;5074913;28;20198;-68
2023/03/12 10:23:51;;;;;;;16.43;12.90;;;;;;;;;;5072938;28;20246;-68
2023/03/12 10:26:35;;;;;;;13.93;12.57;;;;;;;;;;5060163;28;20190;-68
2023/03/12 10:29:03;;;;;;;15.30;13.80;;;;;;;;;;5039269;28;20185;-68
2023/03/12 10:31:51;;;;;;;16.30;14.53;;;;;;;;;;5057503;28;20667;-68
2023/03/12 10:34:39;;;;;;;14.80;13.30;;;;;;;;;;5038557;28;20308;-68
2023/03/12 10:37:12;;;;;;;15.50;13.90;;;;;;;;;;5057139;28;20154;-68
2023/03/12 10:39:39;;;;;;;18.27;15.73;;;;;;;;;;5056541;28;20163;-68
2023/03/12 10:42:11;;;;;;;17.60;15.47;;;;;;;;;;5039156;28;20178;-68
2023/03/12 10:44:37;;;;;;;16.60;14.50;;;;;;;;;;5056309;28;20206;-68
2023/03/12 10:47:13;;;;;;;14.97;13.43;;;;;;;;;;5057072;28;20254;-68
2023/03/12 10:49:39;;;;;;;15.63;14.03;;;;;;;;;;5055731;28;20240;-68
2023/03/12 10:52:15;;;;;;;13.53;11.70;;;;;;;;;;5037385;28;20607;-68
2023/03/12 10:54:43;;;;;;;14.07;12.00;;;;;;;;;;5037279;28;20206;-67
2023/03/12 10:57:10;;;;;;;13.13;11.40;;;;;;;;;;5037076;28;20265;-67
2023/03/12 10:59:44;;;;;;;13.87;11.07;;;;;;;;;;5055256;28;20253;-70
2023/03/12 11:02:39;;;;;;;15.53;11.57;;;;;;;;;;5055352;28;20166;-69
2023/03/12 11:05:18;;;;;;;11.93;10.73;;;;;;;;;;5041670;28;20214;-69
2023/03/12 11:07:44;;;;;;;14.70;10.93;;;;;;;;;;5055012;28;20166;-69
2023/03/12 11:10:10;;;;;;;15.07;11.83;;;;;;;;;;5036368;28;20186;-69
2023/03/12 11:12:38;;;;;;;13.10;11.57;;;;;;;;;;5036616;28;20612;-69
2023/03/12 11:15:21;;;;;;;12.33;10.40;;;;;;;;;;5054264;28;20241;-69
2023/03/12 11:17:47;;;;;;;12.10;10.80;;;;;;;;;;5054484;28;20163;-69
2023/03/12 11:20:18;;;;;;;15.07;11.50;;;;;;;;;;5036376;28;20604;-69
2023/03/12 11:22:44;;;;;;;10.43;9.33;;;;;;;;;;5054666;28;20166;-69
2023/03/12 11:25:20;;;;;;;15.30;12.07;;;;;;;;;;5036301;28;20224;-68
2023/03/12 11:27:50;;;;;;;12.90;11.57;;;;;;;;;;5036541;28;20548;-68
2023/03/12 11:30:17;;;;;;;13.67;11.70;;;;;;;;;;5054231;28;20589;-69
2023/03/12 11:32:45;;;;;;;17.07;12.23;;;;;;;;;;5053646;28;20227;-68
2023/03/12 11:35:15;;;;;;;14.63;12.77;;;;;;;;;;5053755;28;20210;-68
2023/03/12 11:37:59;;;;;;;13.00;11.57;;;;;;;;;;5036002;28;20182;-68
2023/03/12 11:40:28;;;;;;;15.43;12.17;;;;;;;;;;5053781;28;20628;-68
2023/03/12 11:43:08;;;;;;;16.87;12.57;;;;;;;;;;5054063;28;20243;-71
2023/03/12 11:45:43;;;;;;;13.53;12.20;;;;;;;;;;5053874;28;20189;-68
2023/03/12 11:48:18;;;;;;;17.33;14.83;;;;;;;;;;5053862;28;20237;-67
2023/03/12 11:51:03;;;;;;;17.63;12.67;;;;;;;;;;5053714;28;20167;-68
2023/03/12 11:53:35;;;;;;;15.43;12.90;;;;;;;;;;5053630;28;20767;-68
2023/03/12 11:56:19;;;;;;;14.27;11.77;;;;;;;;;;5035640;28;20185;-68
2023/03/12 11:59:02;;;;;;;14.33;11.97;;;;;;;;;;5053881;28;20167;-68
2023/03/12 12:01:28;;;;;;;13.37;10.57;;;;;;;;;;5053579;28;20216;-67
2023/03/12 12:04:04;;;;;;;12.23;11.03;;;;;;;;;;5035408;28;20202;-68
2023/03/12 12:06:36;;;;;;;12.77;11.47;;;;;;;;;;5053409;28;20224;-68
2023/03/12 12:09:08;;;;;;;13.37;11.97;;;;;;;;;;5035460;28;20559;-68
2023/03/12 12:11:51;;;;;;;14.20;11.80;;;;;;;;;;5053397;28;20178;-67
2023/03/12 12:14:16;;;;;;;19.20;12.27;;;;;;;;;;5053111;28;20217;-68
2023/03/12 12:16:51;;;;;;;16.60;12.17;;;;;;;;;;5053336;28;20174;-68
2023/03/12 12:19:32;;;;;;;17.50;13.80;;;;;;;;;;5053228;28;20166;-69
2023/03/12 12:22:14;;;;;;;20.50;16.80;;;;;;;;;;5053332;28;20251;-68
2023/03/12 12:24:58;;;;;;;19.73;15.13;;;;;;;;;;5035309;28;20209;-68
2023/03/12 12:27:25;;;;;;;20.53;15.73;;;;;;;;;;5053008;28;20182;-68
2023/03/12 12:30:09;;;;;;;21.60;14.47;;;;;;;;;;5053185;28;20248;-67
2023/03/12 12:32:54;;;;;;;23.77;15.47;;;;;;;;;;5053184;28;20167;-68
2023/03/12 12:35:35;;;;;;;25.37;17.20;;;;;;;;;;5034914;28;20641;-68
2023/03/12 12:38:10;;;;;;;23.30;16.37;;;;;;;;;;5053148;28;20182;-68
2023/03/12 12:40:38;;;;;;;25.40;17.77;;;;;;;;;;5035355;28;20689;-68
2023/03/12 12:43:19;;;;;;;27.77;17.63;;;;;;;;;;5053273;28;20186;-68
2023/03/12 12:45:47;;;;;;;31.07;17.77;;;;;;;;;;5054879;28;20268;-68
2023/03/12 12:48:45;;;;;;;31.60;18.60;;;;;;;;;;5039115;28;20183;-68
2023/03/12 12:51:12;;;;;;;29.63;16.77;;;;;;;;;;5023467;28;20648;-68
2023/03/12 12:53:56;;;;;;;29.60;16.57;;;;;;;;;;5057005;28;20242;-68
2023/03/12 12:56:31;;;;;;;28.03;16.67;;;;;;;;;;5039105;28;20262;-67
2023/03/12 12:59:08;;;;;;;31.40;15.20;;;;;;;;;;5057315;28;20192;-68
2023/03/12 13:01:34;;;;;;;30.67;14.73;;;;;;;;;;5057185;28;20628;-68
2023/03/12 13:04:04;;;;;;;27.77;13.53;;;;;;;;;;5056966;28;20213;-68
2023/03/12 13:06:49;;;;;;;30.93;15.63;;;;;;;;;;5056751;28;20186;-68
2023/03/12 13:09:20;;;;;;;26.30;14.20;;;;;;;;;;5038628;28;20248;-68
2023/03/12 13:11:47;;;;;;;30.87;14.27;;;;;;;;;;5038598;28;20209;-68
2023/03/12 13:14:15;;;;;;;30.97;14.10;;;;;;;;;;5038527;28;20210;-68
2023/03/12 13:16:42;;;;;;;26.40;12.40;;;;;;;;;;5056544;28;20234;-68
2023/03/12 13:19:14;;;;;;;34.23;13.50;;;;;;;;;;5056842;28;20224;-67
2023/03/12 13:22:03;;;;;;;30.27;13.63;;;;;;;;;;5056631;28;20235;-67
2023/03/12 13:24:29;;;;;;;32.10;13.03;;;;;;;;;;5039430;28;20209;-68
2023/03/12 13:27:02;;;;;;;26.17;11.13;;;;;;;;;;5038511;28;20269;-68
2023/03/12 13:29:28;;;;;;;33.23;12.10;;;;;;;;;;5056478;28;20179;-68
2023/03/12 13:31:55;;;;;;;33.33;12.17;;;;;;;;;;5056517;28;20189;-68
2023/03/12 13:34:21;;;;;;;28.90;10.90;;;;;;;;;;5056007;28;20575;-68
2023/03/12 13:36:50;;;;;;;28.83;10.27;;;;;;;;;;5038388;28;20204;-68
2023/03/12 13:39:16;;;;;;;29.10;10.80;;;;;;;;;;5038131;28;20319;-68
2023/03/12 13:41:42;;;;;;;27.17;9.63;;;;;;;;;;5038331;28;20660;-68
2023/03/12 13:44:27;;;;;;;25.83;10.20;;;;;;;;;;5038578;28;20229;-68
2023/03/12 13:46:57;;;;;;;31.03;9.80;;;;;;;;;;5057022;28;20175;-68
2023/03/12 13:49:23;;;;;;;34.83;10.07;;;;;;;;;;5056118;28;20182;-68
2023/03/12 13:52:11;;;;;;;32.90;9.63;;;;;;;;;;5057026;28;20185;-67
2023/03/12 13:54:40;;;;;;;29.40;9.47;;;;;;;;;;5038808;28;20214;-67
2023/03/12 13:57:11;;;;;;;32.17;9.97;;;;;;;;;;5038389;28;20182;-67
2023/03/12 13:59:42;;;;;;;31.80;9.97;;;;;;;;;;5056496;28;20175;-67
2023/03/12 14:02:15;;;;;;;30.10;7.63;;;;;;;;;;5058094;28;20171;-68
2023/03/12 14:04:42;;;;;;;19.20;7.13;;;;;;;;;;5056947;28;20264;-67
2023/03/12 14:07:27;;;;;;;28.63;8.40;;;;;;;;;;5038236;28;20720;-68
2023/03/12 14:10:08;;;;;;;29.73;8.20;;;;;;;;;;5056555;28;20305;-68
2023/03/12 14:12:37;;;;;;;30.30;7.97;;;;;;;;;;5056327;28;20170;-68
2023/03/12 14:15:06;;;;;;;30.90;8.03;;;;;;;;;;5056355;28;20644;-68
2023/03/12 14:17:33;;;;;;;30.20;7.50;;;;;;;;;;5037994;28;20255;-68
2023/03/12 14:20:06;;;;;;;28.47;7.53;;;;;;;;;;5055644;28;20179;-68
2023/03/12 14:22:33;;;;;;;34.57;8.00;;;;;;;;;;5055648;28;20182;-68
2023/03/12 14:25:03;;;;;;;28.87;8.47;;;;;;;;;;5037510;28;20201;-68
2023/03/12 14:27:31;;;;;;;37.43;8.33;;;;;;;;;;5056053;28;20174;-68
2023/03/12 14:30:07;;;;;;;29.40;8.37;;;;;;;;;;5056296;28;20179;-68
2023/03/12 14:32:33;;;;;;;28.20;8.07;;;;;;;;;;5038753;28;20174;-68
2023/03/12 14:35:12;;;;;;;33.37;7.67;;;;;;;;;;5056507;28;20271;-68
2023/03/12 14:37:42;;;;;;;26.77;7.87;;;;;;;;;;5055698;28;20178;-68
2023/03/12 14:40:19;;;;;;;32.43;8.70;;;;;;;;;;5055553;28;20185;-68